Time;durP1;ratioP1;P1;durP2;ratioP2;P2;SDS_P1;SDS_P2;PMS_P1;PMS_P2;Temp;Humidity;BMP_temperature;BMP_pressure;BME280_temperature;BME280_humidity;BME280_pressure;Samples;Min_cycle;Max_cycle;Signal;HPM_P1;HPM_P2
2022/06/06 00:01:18;;;;;;;6.35;3.35;;;15.70;99.90;;;;;;5019354;28;20049;-72
2022/06/06 00:03:45;;;;;;;6.72;3.78;;;15.70;99.90;;;;;;5035250;28;20041;-72
2022/06/06 00:06:15;;;;;;;6.00;3.70;;;15.70;99.90;;;;;;5037917;28;20051;-72
2022/06/06 00:08:42;;;;;;;5.82;3.67;;;15.70;99.90;;;;;;5021013;28;20429;-72
2022/06/06 00:11:09;;;;;;;6.18;4.03;;;15.60;99.90;;;;;;5036689;28;20394;-72
2022/06/06 00:13:37;;;;;;;7.07;4.05;;;15.60;99.90;;;;;;5022040;28;20444;-72
2022/06/06 00:16:03;;;;;;;6.13;3.85;;;15.60;99.90;;;;;;5032137;28;20036;-72
2022/06/06 00:18:29;;;;;;;6.07;3.95;;;15.60;99.90;;;;;;5032516;28;20042;-72
2022/06/06 00:20:55;;;;;;;;;;;15.60;99.90;;;;;;5019133;28;20056;-71
2022/06/06 00:23:21;;;;;;;6.63;4.15;;;15.60;99.90;;;;;;5034110;28;19946;-72
2022/06/06 00:25:47;;;;;;;8.30;4.38;;;15.50;99.90;;;;;;5029425;28;20073;-72
2022/06/06 00:28:13;;;;;;;10.18;4.90;;;15.50;99.90;;;;;;5017410;28;20183;-72
2022/06/06 00:30:38;;;;;;;7.97;5.05;;;15.40;99.90;;;;;;5037898;28;20514;-72
2022/06/06 00:35:48;;;;;;;7.75;4.57;;;15.40;99.90;;;;;;5039587;28;20072;-72
2022/06/06 00:38:14;;;;;;;7.50;4.68;;;15.30;99.90;;;;;;5012929;28;20083;-72
2022/06/06 00:40:39;;;;;;;8.70;4.70;;;15.30;99.90;;;;;;5035347;28;20037;-72
2022/06/06 00:43:05;;;;;;;7.60;4.28;;;15.30;99.90;;;;;;5034847;28;20029;-72
2022/06/06 00:45:40;;;;;;;7.45;4.50;;;15.30;99.90;;;;;;5016230;28;20144;-72
2022/06/06 00:48:15;;;;;;;7.25;4.90;;;15.20;99.90;;;;;;5009981;28;20458;-72
2022/06/06 00:50:49;;;;;;;9.05;4.93;;;15.30;99.90;;;;;;5033644;28;20131;-72
2022/06/06 00:53:20;;;;;;;7.15;3.80;;;15.20;99.90;;;;;;5028837;28;20046;-72
2022/06/06 00:55:51;;;;;;;7.97;3.80;;;15.20;99.90;;;;;;5036013;28;20099;-72
2022/06/06 00:58:22;;;;;;;9.30;4.75;;;15.10;99.90;;;;;;5012916;28;20091;-73
2022/06/06 01:00:50;;;;;;;6.40;3.92;;;15.10;99.90;;;;;;5019983;28;20298;-73
2022/06/06 01:03:19;;;;;;;6.93;3.88;;;15.00;99.90;;;;;;5016775;28;20087;-72
2022/06/06 01:05:47;;;;;;;7.05;3.50;;;14.90;99.90;;;;;;5037662;28;20581;-71
2022/06/06 01:08:16;;;;;;;5.43;3.55;;;14.90;99.90;;;;;;5035187;28;20542;-72
2022/06/06 01:10:42;;;;;;;6.72;3.95;;;14.90;99.90;;;;;;5043017;22;20039;-75
2022/06/06 01:13:10;;;;;;;6.20;3.47;;;14.80;99.90;;;;;;5048278;28;20040;-74
2022/06/06 01:16:18;;;;;;;5.10;3.03;;;14.80;99.90;;;;;;5042752;28;20072;-75
2022/06/06 01:19:07;;;;;;;6.18;3.28;;;14.80;99.90;;;;;;4988560;28;20049;-74
2022/06/06 01:22:10;;;;;;;5.93;3.28;;;14.70;99.90;;;;;;5006091;28;20496;-74
2022/06/06 01:25:09;;;;;;;5.72;3.08;;;14.70;99.90;;;;;;5022270;28;20036;-75
2022/06/06 01:27:49;;;;;;;10.23;3.45;;;14.70;99.90;;;;;;5021789;28;20053;-74
2022/06/06 01:30:25;;;;;;;4.55;2.72;;;14.60;99.90;;;;;;5033101;28;20300;-75
2022/06/06 01:32:57;;;;;;;4.17;2.50;;;14.60;99.90;;;;;;5024595;28;20369;-74
2022/06/06 01:35:32;;;;;;;5.75;2.70;;;14.60;99.90;;;;;;5036999;28;20424;-72
2022/06/06 01:37:58;;;;;;;4.07;2.25;;;14.60;99.90;;;;;;5020001;28;20069;-72
2022/06/06 01:40:28;;;;;;;4.07;2.40;;;14.60;99.90;;;;;;4999587;28;20126;-73
2022/06/06 01:43:13;;;;;;;4.13;2.17;;;14.50;99.90;;;;;;5017418;28;20041;-72
2022/06/06 01:45:56;;;;;;;5.10;2.17;;;14.50;99.90;;;;;;5020565;28;20391;-72
2022/06/06 01:48:29;;;;;;;4.05;2.20;;;14.40;99.90;;;;;;5015182;28;20426;-72
2022/06/06 01:51:01;;;;;;;4.20;2.50;;;14.40;99.90;;;;;;5030890;28;20651;-72
2022/06/06 01:53:26;;;;;;;4.53;2.40;;;14.30;99.90;;;;;;5037886;28;20117;-72
2022/06/06 01:55:53;;;;;;;4.28;2.72;;;14.30;99.90;;;;;;5038666;28;20140;-72
2022/06/06 01:58:21;;;;;;;;;;;14.30;99.90;;;;;;5014495;28;20034;-72
2022/06/06 02:00:47;;;;;;;4.22;2.45;;;14.30;99.90;;;;;;5018822;28;19924;-72
2022/06/06 02:03:13;;;;;;;5.30;2.47;;;14.30;99.90;;;;;;5036952;28;20401;-72
2022/06/06 02:05:39;;;;;;;5.85;2.83;;;14.20;99.90;;;;;;5019521;28;20093;-72
2022/06/06 02:08:06;;;;;;;8.10;2.97;;;14.20;99.90;;;;;;5039275;28;20040;-72
2022/06/06 02:10:32;;;;;;;9.10;3.45;;;14.20;99.90;;;;;;5020225;28;20059;-72
2022/06/06 02:12:58;;;;;;;4.60;3.00;;;14.20;99.90;;;;;;5040128;28;20042;-72
2022/06/06 02:15:24;;;;;;;6.10;3.65;;;14.20;99.90;;;;;;5006120;28;20460;-72
2022/06/06 02:17:51;;;;;;;6.63;3.90;;;14.20;99.90;;;;;;5041000;28;20068;-72
2022/06/06 02:20:20;;;;;;;7.60;2.70;;;14.20;99.90;;;;;;5022101;28;20581;-72
2022/06/06 02:22:46;;;;;;;8.05;3.40;;;14.20;99.90;;;;;;5039447;28;20049;-72
2022/06/06 02:25:13;;;;;;;6.90;3.30;;;14.20;99.90;;;;;;5036928;28;20036;-72
2022/06/06 02:27:40;;;;;;;5.40;3.30;;;14.20;99.90;;;;;;5019873;28;20228;-72
2022/06/06 02:30:10;;;;;;;7.80;3.55;;;14.20;99.90;;;;;;5020099;28;20082;-72
2022/06/06 02:32:36;;;;;;;6.95;2.95;;;14.20;99.90;;;;;;5038578;28;20188;-73
2022/06/06 02:35:01;;;;;;;5.05;3.30;;;14.20;99.90;;;;;;5003802;28;20132;-72
2022/06/06 02:37:27;;;;;;;6.05;3.00;;;14.20;99.90;;;;;;5020161;28;20101;-72
2022/06/06 02:39:53;;;;;;;5.23;2.53;;;14.20;99.90;;;;;;5017495;28;20037;-72
2022/06/06 02:42:18;;;;;;;3.90;2.60;;;14.20;99.90;;;;;;5013587;28;20037;-72
2022/06/06 02:44:44;;;;;;;4.23;2.43;;;14.20;99.90;;;;;;5039485;28;20295;-72
2022/06/06 02:47:09;;;;;;;4.43;2.67;;;14.20;99.90;;;;;;5021142;28;20041;-72
2022/06/06 02:49:36;;;;;;;4.90;2.70;;;14.20;99.90;;;;;;4999437;28;20068;-72
2022/06/06 02:52:04;;;;;;;5.72;2.72;;;14.20;99.90;;;;;;5046425;28;20600;-72
2022/06/06 02:54:30;;;;;;;5.05;2.60;;;14.20;99.90;;;;;;5029578;28;20044;-72
2022/06/06 02:56:56;;;;;;;;;;;14.20;99.90;;;;;;5044336;28;20037;-72
2022/06/06 02:59:23;;;;;;;6.78;2.50;;;14.20;99.90;;;;;;5041311;28;20384;-72
2022/06/06 03:01:49;;;;;;;5.20;2.58;;;14.20;99.90;;;;;;5018385;28;20059;-72
2022/06/06 03:04:15;;;;;;;4.78;1.88;;;14.20;99.90;;;;;;5025733;28;20052;-72
2022/06/06 03:07:05;;;;;;;6.38;2.58;;;14.20;99.90;;;;;;5028763;28;20064;-72
2022/06/06 03:10:11;;;;;;;3.97;2.35;;;14.20;99.90;;;;;;5036570;28;20098;-72
2022/06/06 03:13:15;;;;;;;4.00;2.58;;;14.20;99.90;;;;;;5040966;28;20051;-72
2022/06/06 03:20:46;;;;;;;5.88;2.40;;;14.20;99.90;;;;;;5034142;28;20098;-72
2022/06/06 03:22:06;;;;;;;5.20;2.42;;;14.20;99.90;;;;;;5026899;28;20058;-72
2022/06/06 03:25:01;;;;;;;5.13;2.57;;;14.10;99.90;;;;;;5013486;28;20080;-72
2022/06/06 03:27:48;;;;;;;4.43;2.55;;;14.20;99.90;;;;;;5034136;28;20037;-72
2022/06/06 03:30:25;;;;;;;5.00;2.17;;;14.20;99.90;;;;;;5013431;28;20497;-72
2022/06/06 03:33:04;;;;;;;4.10;2.22;;;14.20;99.90;;;;;;5033462;28;20033;-72
2022/06/06 03:35:41;;;;;;;3.95;2.28;;;14.20;99.90;;;;;;5041774;28;20041;-72
2022/06/06 03:38:21;;;;;;;3.78;2.10;;;14.20;99.90;;;;;;5014884;28;20033;-72
2022/06/06 03:40:56;;;;;;;3.50;2.03;;;14.20;99.90;;;;;;5031450;28;20656;-71
2022/06/06 03:43:57;;;;;;;4.65;2.20;;;14.20;99.90;;;;;;5022907;28;20500;-72
2022/06/06 03:46:45;;;;;;;3.97;2.05;;;14.30;99.90;;;;;;5036348;28;20120;-72
2022/06/06 03:49:20;;;;;;;3.95;2.03;;;14.20;99.90;;;;;;5021210;28;20051;-72
2022/06/06 03:52:13;;;;;;;3.42;1.90;;;14.20;99.90;;;;;;5040408;28;20481;-72
2022/06/06 03:54:58;;;;;;;3.63;1.90;;;14.30;99.90;;;;;;5027456;28;20038;-72
2022/06/06 03:57:25;;;;;;;3.22;1.88;;;14.30;99.90;;;;;;5018394;28;20038;-72
2022/06/06 03:59:58;;;;;;;3.60;2.00;;;14.30;99.90;;;;;;5021463;28;20025;-72
2022/06/06 04:02:35;;;;;;;4.60;2.30;;;14.30;99.90;;;;;;5037414;28;20520;-71
2022/06/06 04:05:06;;;;;;;3.40;1.83;;;14.30;99.90;;;;;;5036148;28;20087;-73
2022/06/06 04:07:33;;;;;;;3.72;2.45;;;14.30;99.90;;;;;;5015414;28;20417;-72
2022/06/06 04:10:00;;;;;;;3.13;2.00;;;14.30;99.90;;;;;;5021417;28;20480;-71
2022/06/06 04:13:05;;;;;;;3.55;2.13;;;14.30;99.90;;;;;;5028128;28;20128;-72
2022/06/06 04:15:55;;;;;;;2.70;1.60;;;14.30;99.90;;;;;;5036717;28;20064;-73
2022/06/06 04:18:35;;;;;;;2.20;1.48;;;14.30;99.90;;;;;;5001958;28;20274;-71
2022/06/06 04:21:32;;;;;;;2.00;0.95;;;14.30;99.90;;;;;;5017703;28;20496;-72
2022/06/06 04:24:22;;;;;;;1.98;1.02;;;14.30;99.90;;;;;;5020367;28;20413;-72
2022/06/06 04:26:57;;;;;;;1.77;1.02;;;14.30;99.90;;;;;;5032205;28;20184;-72
2022/06/06 04:29:44;;;;;;;2.17;1.23;;;14.30;99.90;;;;;;5018517;28;20482;-72
2022/06/06 04:32:35;;;;;;;2.10;1.50;;;14.30;99.90;;;;;;5021504;28;20159;-72
2022/06/06 04:35:17;;;;;;;2.45;1.23;;;14.20;99.90;;;;;;5020377;28;20079;-71
2022/06/06 04:38:14;;;;;;;3.45;1.90;;;14.20;99.90;;;;;;5011967;28;20034;-72
2022/06/06 04:40:43;;;;;;;3.40;2.03;;;14.10;99.90;;;;;;5039285;28;20573;-71
2022/06/06 04:43:11;;;;;;;4.63;2.47;;;14.10;99.90;;;;;;5036001;28;20041;-71
2022/06/06 04:45:51;;;;;;;5.20;2.75;;;14.10;99.90;;;;;;5021374;28;20097;-71
2022/06/06 04:48:19;;;;;;;7.38;3.42;;;14.00;99.90;;;;;;5022819;28;20116;-72
2022/06/06 04:50:46;;;;;;;5.90;3.10;;;14.00;99.90;;;;;;5038783;28;20043;-72
2022/06/06 04:53:17;;;;;;;7.82;4.10;;;14.00;99.90;;;;;;5015777;28;20033;-71
2022/06/06 04:55:46;;;;;;;6.57;4.00;;;13.90;99.90;;;;;;5033361;28;20338;-71
2022/06/06 04:58:13;;;;;;;7.07;4.00;;;13.90;99.90;;;;;;5015917;28;20132;-72
2022/06/06 05:00:40;;;;;;;8.00;3.85;;;14.00;99.90;;;;;;5036639;28;20068;-71
2022/06/06 05:03:06;;;;;;;7.50;3.78;;;13.90;99.90;;;;;;5022233;28;20136;-72
2022/06/06 05:05:51;;;;;;;7.85;4.75;;;13.90;99.90;;;;;;5037377;28;20544;-71
2022/06/06 05:08:34;;;;;;;7.88;4.03;;;13.90;99.90;;;;;;5008034;28;20057;-73
2022/06/06 05:11:20;;;;;;;6.55;3.55;;;13.80;99.90;;;;;;5034222;28;20037;-73
2022/06/06 05:14:06;;;;;;;7.60;4.15;;;13.90;99.90;;;;;;5027741;28;20440;-74
2022/06/06 05:16:56;;;;;;;6.22;3.53;;;13.80;99.90;;;;;;5022566;28;20049;-74
2022/06/06 05:19:43;;;;;;;10.80;4.78;;;13.80;99.90;;;;;;5036269;28;20059;-73
2022/06/06 05:22:30;;;;;;;9.50;4.80;;;13.70;99.90;;;;;;5009827;28;20041;-73
2022/06/06 05:25:21;;;;;;;10.13;4.72;;;13.70;99.90;;;;;;5007490;28;20124;-73
2022/06/06 05:28:24;;;;;;;8.23;4.05;;;13.70;99.90;;;;;;5030068;28;20424;-73
2022/06/06 05:31:12;;;;;;;12.02;4.40;;;13.70;99.90;;;;;;5031310;28;20045;-73
2022/06/06 05:33:41;;;;;;;9.07;4.15;;;13.70;99.90;;;;;;5030690;28;20045;-73
2022/06/06 05:36:16;;;;;;;7.60;4.25;;;13.60;99.90;;;;;;5021126;28;20060;-74
2022/06/06 05:38:50;;;;;;;8.63;3.67;;;13.70;99.90;;;;;;5022299;28;20136;-73
2022/06/06 05:41:17;;;;;;;10.27;4.47;;;13.60;99.90;;;;;;5035894;28;20041;-74
2022/06/06 05:43:42;;;;;;;;;;;13.60;99.90;;;;;;5017244;28;20112;-73
2022/06/06 05:46:19;;;;;;;8.63;3.40;;;13.60;99.90;;;;;;5034962;28;19975;-73
2022/06/06 05:48:59;;;;;;;7.70;3.60;;;13.60;99.90;;;;;;5016535;28;20037;-73
2022/06/06 05:51:52;;;;;;;8.40;4.18;;;13.60;99.90;;;;;;5018529;28;20049;-73
2022/06/06 05:54:46;;;;;;;8.57;3.42;;;13.60;99.90;;;;;;5005737;28;20404;-73
2022/06/06 05:57:21;;;;;;;7.20;3.70;;;13.60;99.90;;;;;;5004935;28;20128;-74
2022/06/06 06:00:02;;;;;;;6.20;3.25;;;13.60;99.90;;;;;;5022746;28;20056;-73
2022/06/06 06:02:41;;;;;;;7.72;3.42;;;13.60;99.90;;;;;;5040067;28;20064;-73
2022/06/06 06:05:20;;;;;;;10.05;3.90;;;13.50;99.90;;;;;;5018942;28;20106;-73
2022/06/06 06:08:07;;;;;;;7.65;3.78;;;13.50;99.90;;;;;;5027636;28;20056;-73
2022/06/06 06:10:54;;;;;;;8.63;3.70;;;13.50;99.90;;;;;;5037176;28;20045;-72
2022/06/06 06:13:35;;;;;;;6.25;2.40;;;13.50;99.90;;;;;;5041445;28;20074;-73
2022/06/06 06:16:03;;;;;;;6.53;2.80;;;13.50;99.90;;;;;;5023701;28;20137;-73
2022/06/06 06:18:35;;;;;;;3.92;2.38;;;13.60;99.90;;;;;;5024438;28;20849;-73
2022/06/06 06:21:14;;;;;;;5.20;2.10;;;13.60;99.90;;;;;;5041658;28;20037;-73
2022/06/06 06:23:46;;;;;;;6.30;2.10;;;13.60;99.90;;;;;;5011818;28;20060;-73
2022/06/06 06:26:13;;;;;;;3.42;1.88;;;13.70;99.90;;;;;;5000172;28;20044;-73
2022/06/06 06:28:40;;;;;;;4.10;1.67;;;13.70;99.90;;;;;;5030153;28;20056;-73
2022/06/06 06:31:15;;;;;;;2.72;1.50;;;13.70;99.90;;;;;;5035276;28;20235;-73
2022/06/06 06:34:01;;;;;;;3.08;1.48;;;13.60;99.90;;;;;;5011177;28;20037;-73
2022/06/06 06:36:27;;;;;;;2.13;1.38;;;13.70;99.90;;;;;;5020865;28;20239;-73
2022/06/06 06:38:58;;;;;;;3.10;1.30;;;13.70;99.90;;;;;;5035167;28;20434;-74
2022/06/06 06:41:42;;;;;;;2.95;1.65;;;13.70;99.90;;;;;;5022035;28;20041;-73
2022/06/06 06:44:11;;;;;;;2.63;1.30;;;13.70;99.90;;;;;;5021338;28;20501;-74
2022/06/06 06:46:48;;;;;;;6.13;2.00;;;13.70;99.90;;;;;;5006293;28;20134;-73
2022/06/06 06:49:14;;;;;;;;;;;13.70;99.90;;;;;;5034359;28;20036;-73
2022/06/06 06:52:08;;;;;;;4.15;1.60;;;13.60;99.90;;;;;;5020384;28;19925;-74
2022/06/06 06:54:55;;;;;;;3.10;1.50;;;13.70;99.90;;;;;;5024798;28;20056;-74
2022/06/06 06:58:01;;;;;;;2.75;1.40;;;13.70;99.90;;;;;;5017760;28;20053;-73
2022/06/06 07:00:34;;;;;;;4.55;1.65;;;13.70;99.90;;;;;;5031843;28;20121;-74
2022/06/06 07:12:07;;;;;;;3.45;1.88;;;13.90;99.90;;;;;;5063549;22;20139;-85
2022/06/06 07:15:33;;;;;;;3.22;1.75;;;13.90;99.90;;;;;;5011661;28;20053;-85
2022/06/06 07:18:16;;;;;;;5.68;2.05;;;14.00;99.90;;;;;;4997632;28;20595;-82
2022/06/06 07:20:46;;;;;;;3.35;1.65;;;14.10;99.90;;;;;;5021849;22;20497;-68
2022/06/06 07:23:13;;;;;;;7.50;1.90;;;14.00;99.90;;;;;;5033948;28;20045;-69
2022/06/06 07:25:48;;;;;;;4.05;1.67;;;14.00;99.90;;;;;;5038025;28;20053;-69
2022/06/06 07:28:19;;;;;;;3.60;1.48;;;14.00;99.90;;;;;;5030856;28;20268;-68
2022/06/06 07:31:10;;;;;;;3.88;1.85;;;14.00;99.90;;;;;;5006798;28;20050;-69
2022/06/06 07:34:02;;;;;;;3.90;1.52;;;14.00;99.90;;;;;;5025625;28;20049;-69
2022/06/06 07:36:55;;;;;;;4.80;2.25;;;14.10;99.90;;;;;;5029942;28;20099;-68
2022/06/06 07:39:20;;;;;;;4.30;1.80;;;14.10;99.90;;;;;;5025119;28;20117;-68
2022/06/06 07:42:18;;;;;;;4.53;1.65;;;14.10;99.90;;;;;;5025969;28;20134;-72
2022/06/06 07:45:05;;;;;;;4.00;1.73;;;14.20;99.90;;;;;;5028122;28;20379;-69
2022/06/06 07:47:55;;;;;;;4.72;1.75;;;14.30;99.90;;;;;;5024863;28;20060;-69
2022/06/06 07:50:27;;;;;;;4.10;1.85;;;14.40;99.90;;;;;;5029618;28;20033;-69
2022/06/06 07:53:25;;;;;;;5.90;2.05;;;14.60;99.90;;;;;;5028159;28;20223;-70
2022/06/06 07:56:10;;;;;;;3.35;1.50;;;14.70;99.90;;;;;;4987741;28;20049;-69
2022/06/06 07:58:56;;;;;;;5.53;1.90;;;14.80;99.90;;;;;;5021829;28;20083;-69
2022/06/06 08:01:46;;;;;;;4.25;2.08;;;14.90;99.90;;;;;;5021538;28;20034;-70
2022/06/06 08:04:20;;;;;;;2.38;1.33;;;14.90;99.90;;;;;;5021316;28;20033;-69
2022/06/06 08:06:54;;;;;;;8.98;1.75;;;14.90;99.90;;;;;;5022860;28;20053;-69
2022/06/06 08:09:45;;;;;;;4.72;1.80;;;14.80;99.90;;;;;;5030439;28;20068;-68
2022/06/06 08:12:30;;;;;;;3.58;1.75;;;14.80;99.90;;;;;;5030712;28;20029;-68
2022/06/06 08:15:27;;;;;;;2.40;1.20;;;14.70;99.90;;;;;;5023289;28;20064;-69
2022/06/06 08:18:23;;;;;;;3.20;1.33;;;14.70;99.90;;;;;;5014979;28;20049;-69
2022/06/06 08:21:21;;;;;;;4.15;1.58;;;14.60;99.90;;;;;;5022686;28;20049;-68
2022/06/06 08:23:48;;;;;;;;;;;14.60;99.90;;;;;;5025793;28;20037;-68
2022/06/06 08:26:15;;;;;;;2.45;1.20;;;14.60;99.90;;;;;;5014903;28;19917;-69
2022/06/06 08:28:44;;;;;;;6.68;1.65;;;14.50;99.90;;;;;;5024765;28;20041;-69
2022/06/06 08:31:09;;;;;;;3.63;1.48;;;14.40;99.90;;;;;;5026484;28;20045;-68
2022/06/06 08:33:35;;;;;;;2.65;1.50;;;14.40;99.90;;;;;;5026870;28;20037;-68
2022/06/06 08:36:26;;;;;;;2.70;1.48;;;14.40;99.90;;;;;;5022408;28;20045;-68
2022/06/06 08:39:20;;;;;;;5.50;2.17;;;14.30;99.90;;;;;;5021437;28;20444;-68
2022/06/06 08:42:07;;;;;;;4.20;1.98;;;14.30;99.90;;;;;;5026061;28;20068;-68
2022/06/06 08:44:57;;;;;;;4.32;1.98;;;14.30;99.90;;;;;;5024384;28;20045;-68
2022/06/06 08:47:31;;;;;;;4.60;2.00;;;14.30;99.90;;;;;;5007294;28;20489;-68
2022/06/06 08:50:46;;;;;;;4.55;1.77;;;14.30;99.90;;;;;;5027104;28;20045;-69
2022/06/06 08:53:15;;;;;;;5.35;2.13;;;14.30;99.90;;;;;;5025857;28;20068;-68
2022/06/06 08:55:59;;;;;;;5.35;2.22;;;14.40;99.90;;;;;;5025800;28;20049;-69
2022/06/06 08:59:01;;;;;;;4.65;2.45;;;14.50;99.90;;;;;;5021776;28;20033;-68
2022/06/06 09:01:58;;;;;;;6.45;2.70;;;14.70;99.90;;;;;;5026885;28;20111;-68
2022/06/06 09:04:38;;;;;;;4.65;2.50;;;14.80;99.90;;;;;;5026582;28;20033;-69
2022/06/06 09:07:24;;;;;;;4.25;2.60;;;14.90;99.90;;;;;;5021984;28;20291;-69
2022/06/06 09:10:03;;;;;;;3.97;2.38;;;14.90;99.90;;;;;;4986608;28;20072;-69
2022/06/06 09:12:40;;;;;;;4.95;1.83;;;14.90;99.90;;;;;;5025859;28;20132;-70
2022/06/06 09:15:43;;;;;;;4.60;2.30;;;15.00;99.90;;;;;;5031883;28;20053;-68
2022/06/06 09:19:00;;;;;;;4.28;2.17;;;15.00;99.90;;;;;;5023707;28;20485;-68
2022/06/06 09:21:56;;;;;;;7.97;2.10;;;15.20;99.90;;;;;;4988274;28;20045;-68
2022/06/06 09:24:45;;;;;;;3.75;2.03;;;15.50;99.90;;;;;;5022141;28;20299;-68
2022/06/06 09:27:47;;;;;;;4.32;2.13;;;15.70;99.90;;;;;;4981236;28;20049;-68
2022/06/06 09:30:42;;;;;;;3.13;1.83;;;15.80;99.90;;;;;;5018355;28;20084;-68
2022/06/06 09:33:35;;;;;;;8.68;2.35;;;16.00;99.90;;;;;;5023481;28;20041;-69
2022/06/06 09:36:23;;;;;;;5.07;2.40;;;16.20;99.90;;;;;;5025527;28;20092;-69
2022/06/06 09:38:58;;;;;;;6.00;1.92;;;16.40;99.90;;;;;;5020225;28;20045;-70
2022/06/06 09:41:39;;;;;;;7.88;2.38;;;16.50;99.90;;;;;;5018089;28;20079;-69
2022/06/06 09:44:42;;;;;;;3.95;1.67;;;16.60;99.90;;;;;;5025478;28;20452;-68
2022/06/06 09:47:33;;;;;;;5.47;1.77;;;16.80;99.90;;;;;;5022523;28;20256;-68
2022/06/06 09:50:26;;;;;;;3.70;1.65;;;16.90;99.90;;;;;;5020775;28;20475;-68
2022/06/06 09:52:55;;;;;;;6.72;1.55;;;16.90;99.90;;;;;;5024544;28;20228;-69
2022/06/06 09:59:19;;;;;;;5.95;1.60;;;17.10;99.90;;;;;;5024847;28;20090;-68
2022/06/06 10:02:06;;;;;;;6.55;1.10;;;17.10;99.90;;;;;;5024728;28;20397;-69
2022/06/06 10:04:38;;;;;;;;;;;17.10;99.90;;;;;;5021225;28;20049;-68
2022/06/06 10:07:16;;;;;;;3.95;0.95;;;17.20;99.90;;;;;;5023879;28;19963;-69
2022/06/06 10:10:19;;;;;;;3.50;0.93;;;17.30;99.90;;;;;;5025004;28;20045;-70
2022/06/06 10:12:57;;;;;;;3.58;1.23;;;17.40;99.90;;;;;;5023801;28;20048;-69
2022/06/06 10:15:31;;;;;;;5.20;1.05;;;17.40;99.90;;;;;;5022373;28;20770;-68
2022/06/06 10:18:08;;;;;;;2.97;0.95;;;17.50;99.90;;;;;;5025794;28;20108;-70
2022/06/06 10:20:59;;;;;;;4.25;0.60;;;17.50;99.90;;;;;;5025696;28;20172;-69
2022/06/06 10:24:02;;;;;;;3.85;1.13;;;17.40;99.90;;;;;;5022525;28;20262;-68
2022/06/06 10:26:45;;;;;;;1.85;0.80;;;17.30;99.90;;;;;;4929085;28;20258;-68
2022/06/06 10:32:58;;;;;;;2.85;0.95;;;17.10;99.90;;;;;;5016069;28;20065;-69
2022/06/06 10:36:02;;;;;;;4.28;1.05;;;17.10;99.90;;;;;;5018702;28;20182;-68
2022/06/06 10:38:49;;;;;;;6.95;0.52;;;17.00;99.90;;;;;;5016803;28;20065;-69
2022/06/06 10:41:14;;;;;;;;;;;17.00;99.90;;;;;;5021933;28;20046;-68
2022/06/06 10:44:02;;;;;;;3.53;0.82;;;17.00;99.90;;;;;;5018520;28;20403;-68
2022/06/06 10:46:46;;;;;;;5.03;1.52;;;17.00;99.90;;;;;;5015247;28;20077;-69
2022/06/06 10:49:38;;;;;;;2.03;0.73;;;17.10;99.90;;;;;;5022965;28;20049;-68
2022/06/06 10:52:21;;;;;;;2.33;0.93;;;17.20;99.90;;;;;;5016211;28;20034;-68
2022/06/06 10:55:06;;;;;;;4.05;1.30;;;17.20;99.90;;;;;;5012825;28;20601;-69
2022/06/06 10:57:56;;;;;;;2.53;0.77;;;17.20;99.90;;;;;;5015727;28;20049;-68
2022/06/06 11:00:43;;;;;;;5.97;0.57;;;17.20;99.90;;;;;;5025399;28;20508;-68
2022/06/06 11:03:44;;;;;;;3.03;0.60;;;17.30;99.90;;;;;;5022942;28;20041;-67
2022/06/06 11:06:28;;;;;;;1.77;0.50;;;17.30;99.90;;;;;;5022012;28;20037;-69
2022/06/06 11:09:07;;;;;;;2.97;0.80;;;17.30;99.90;;;;;;5022302;28;20371;-69
2022/06/06 11:11:53;;;;;;;3.75;1.00;;;17.30;99.90;;;;;;5023071;28;20064;-69
2022/06/06 11:14:39;;;;;;;4.00;1.23;;;17.40;99.90;;;;;;5025873;28;20052;-68
2022/06/06 11:17:26;;;;;;;2.05;0.75;;;17.30;99.90;;;;;;5023753;28;20727;-69
2022/06/06 11:20:07;;;;;;;2.53;0.77;;;17.40;99.90;;;;;;5025838;28;20033;-68
2022/06/06 11:22:48;;;;;;;8.38;0.80;;;17.50;99.90;;;;;;5024954;28;20084;-68
2022/06/06 11:25:17;;;;;;;1.48;0.55;;;17.50;99.90;;;;;;5026503;28;20041;-68
2022/06/06 11:27:54;;;;;;;10.57;1.23;;;17.50;99.90;;;;;;5023533;28;20400;-69
2022/06/06 11:30:48;;;;;;;4.10;1.02;;;17.50;99.90;;;;;;5026450;28;20128;-69
2022/06/06 11:33:13;;;;;;;3.88;0.77;;;17.40;99.90;;;;;;5021843;28;20106;-69
2022/06/06 11:35:52;;;;;;;7.72;1.17;;;17.40;99.90;;;;;;5026460;28;20121;-69
2022/06/06 11:39:09;;;;;;;5.20;0.60;;;17.30;99.90;;;;;;5018431;28;20057;-69
2022/06/06 11:41:48;;;;;;;2.75;0.80;;;17.40;99.90;;;;;;4991875;28;20053;-69
2022/06/06 11:44:16;;;;;;;2.38;0.73;;;17.40;99.90;;;;;;5009660;28;20029;-69
2022/06/06 11:46:57;;;;;;;2.97;0.90;;;17.40;99.90;;;;;;5022605;28;20045;-68
2022/06/06 11:49:52;;;;;;;4.55;0.80;;;17.40;99.90;;;;;;5025601;28;20395;-69
2022/06/06 11:52:20;;;;;;;4.00;1.05;;;17.30;99.90;;;;;;5015788;28;20053;-69
2022/06/06 11:55:01;;;;;;;2.08;0.70;;;17.20;99.90;;;;;;5014799;28;20045;-68
2022/06/06 11:57:45;;;;;;;3.97;1.27;;;17.20;99.90;;;;;;5014085;28;20051;-69
2022/06/06 12:00:43;;;;;;;2.15;0.93;;;17.10;99.90;;;;;;5012711;28;20041;-69
2022/06/06 12:03:26;;;;;;;3.58;0.90;;;17.10;99.90;;;;;;5024747;28;20056;-69
2022/06/06 12:06:20;;;;;;;4.70;1.40;;;17.10;99.90;;;;;;5020599;28;20144;-69
2022/06/06 12:09:12;;;;;;;3.40;0.82;;;16.90;99.90;;;;;;5026316;28;20485;-69
2022/06/06 12:12:05;;;;;;;3.70;1.60;;;16.80;99.90;;;;;;5028341;28;20049;-68
2022/06/06 12:14:39;;;;;;;1.95;0.88;;;16.70;99.90;;;;;;5025618;28;20300;-69
2022/06/06 12:17:26;;;;;;;3.47;0.70;;;16.80;99.90;;;;;;5030205;28;20095;-69
2022/06/06 12:20:23;;;;;;;3.83;0.98;;;16.80;99.90;;;;;;5028130;28;20467;-69
2022/06/06 12:23:00;;;;;;;3.47;0.88;;;16.90;99.90;;;;;;5018811;28;20057;-68
2022/06/06 12:26:06;;;;;;;2.95;0.95;;;17.00;99.90;;;;;;5025723;28;20530;-68
2022/06/06 12:28:34;;;;;;;5.35;1.02;;;17.10;99.90;;;;;;5037719;28;20103;-69
2022/06/06 12:31:06;;;;;;;3.78;1.20;;;17.00;99.90;;;;;;5020415;28;20493;-69
2022/06/06 12:33:40;;;;;;;4.38;1.27;;;17.00;99.90;;;;;;5026307;28;20045;-68
2022/06/06 12:36:49;;;;;;;2.17;0.80;;;17.00;99.90;;;;;;5022960;28;20054;-69
2022/06/06 12:39:34;;;;;;;3.20;1.13;;;16.90;99.90;;;;;;5023523;28;20038;-68
2022/06/06 12:42:13;;;;;;;6.50;1.00;;;16.90;99.90;;;;;;5026691;28;20053;-69
2022/06/06 12:45:11;;;;;;;3.35;0.98;;;16.80;99.90;;;;;;5025610;28;20439;-69
2022/06/06 12:48:10;;;;;;;5.55;1.13;;;16.80;99.90;;;;;;5023057;28;20034;-69
2022/06/06 12:50:56;;;;;;;2.60;0.90;;;16.70;99.90;;;;;;5025075;28;20090;-69
2022/06/06 12:53:53;;;;;;;4.80;0.95;;;16.60;99.90;;;;;;5022499;28;20629;-68
2022/06/06 12:57:03;;;;;;;1.90;0.80;;;16.60;99.90;;;;;;5018372;28;20394;-70
2022/06/06 12:59:56;;;;;;;1.25;0.60;;;16.50;99.90;;;;;;4955293;28;20515;-69
2022/06/06 13:02:55;;;;;;;0.95;0.55;;;16.50;99.90;;;;;;5023401;28;20054;-68
2022/06/06 13:05:38;;;;;;;1.95;0.93;;;16.50;99.90;;;;;;5025397;28;20128;-69
2022/06/06 13:08:28;;;;;;;1.40;0.60;;;16.50;99.90;;;;;;5021146;28;20076;-69
2022/06/06 13:11:22;;;;;;;2.00;0.65;;;16.40;99.90;;;;;;5027096;28;20033;-69
2022/06/06 13:13:56;;;;;;;3.08;0.60;;;16.30;99.90;;;;;;5025501;28;20079;-69
2022/06/06 13:16:44;;;;;;;2.03;0.60;;;16.20;99.90;;;;;;5023105;28;20301;-69
2022/06/06 13:19:44;;;;;;;1.00;0.60;;;16.00;99.90;;;;;;5026211;28;20116;-69
2022/06/06 13:22:35;;;;;;;1.67;0.80;;;15.80;99.90;;;;;;5023695;28;20095;-69
2022/06/06 13:25:25;;;;;;;2.35;0.85;;;15.70;99.90;;;;;;5023727;28;20145;-70
2022/06/06 13:27:51;;;;;;;2.88;1.10;;;15.70;99.90;;;;;;5023249;28;20127;-69
2022/06/06 13:30:31;;;;;;;1.95;1.05;;;15.60;99.90;;;;;;5026459;28;20148;-69
2022/06/06 13:33:30;;;;;;;1.40;0.77;;;15.60;99.90;;;;;;5024651;28;20701;-69
2022/06/06 13:35:59;;;;;;;1.30;0.82;;;15.50;99.90;;;;;;5023101;28;20041;-68
2022/06/06 13:38:55;;;;;;;4.40;1.00;;;15.40;99.90;;;;;;5025214;28;20114;-69
2022/06/06 13:41:52;;;;;;;2.33;1.00;;;15.40;99.90;;;;;;5029046;28;20045;-69
2022/06/06 13:44:53;;;;;;;1.10;0.75;;;15.40;99.90;;;;;;5022784;28;20344;-69
2022/06/06 13:47:57;;;;;;;4.13;1.30;;;15.30;99.90;;;;;;5016746;28;20061;-69
2022/06/06 13:50:34;;;;;;;2.75;0.90;;;15.30;99.90;;;;;;4998862;28;20091;-69
2022/06/06 13:53:21;;;;;;;2.33;1.08;;;15.30;99.90;;;;;;5026249;28;20778;-69
2022/06/06 13:55:46;;;;;;;3.38;1.00;;;15.20;99.90;;;;;;5010856;28;20037;-70
2022/06/06 13:58:37;;;;;;;1.80;1.10;;;15.10;99.90;;;;;;5026786;28;20045;-70
2022/06/06 14:01:38;;;;;;;3.20;0.95;;;15.00;99.90;;;;;;5027959;28;20075;-70
2022/06/06 14:04:38;;;;;;;1.25;0.70;;;14.90;99.90;;;;;;5015603;28;20049;-69
2022/06/06 14:07:35;;;;;;;1.60;0.95;;;14.80;99.90;;;;;;5022616;28;20070;-70
2022/06/06 14:10:15;;;;;;;4.43;1.00;;;14.80;99.90;;;;;;5023231;28;20143;-70
2022/06/06 14:13:01;;;;;;;1.60;0.93;;;14.80;99.90;;;;;;5030049;28;20041;-69
2022/06/06 14:15:28;;;;;;;2.42;1.17;;;14.80;99.90;;;;;;5026839;28;20045;-68
2022/06/06 14:17:57;;;;;;;;;;;14.90;99.90;;;;;;5026680;28;20033;-69
2022/06/06 14:20:45;;;;;;;1.77;0.90;;;14.80;99.90;;;;;;5027385;28;20275;-69